Time;durP1;ratioP1;P1;durP2;ratioP2;P2;SDS_P1;SDS_P2;PMS_P1;PMS_P2;Temp;Humidity;BMP_temperature;BMP_pressure;BME280_temperature;BME280_humidity;BME280_pressure;Samples;Min_cycle;Max_cycle;Signal;HPM_P1;HPM_P2
2022/02/24 00:02:12;;;;;;;9.53;6.33;;;;;;;4.19;100.00;98616.56;5113001;28;20216;-69
2022/02/24 00:04:39;;;;;;;7.93;6.00;;;;;;;4.26;100.00;98618.91;5112606;28;20210;-68
2022/02/24 00:07:05;;;;;;;7.77;6.17;;;;;;;4.46;100.00;98612.94;5110769;28;20213;-69
2022/02/24 00:09:32;;;;;;;8.90;5.77;;;;;;;4.60;100.00;98614.13;5113037;28;20243;-69
2022/02/24 00:12:02;;;;;;;9.20;6.40;;;;;;;4.75;100.00;98610.91;5115372;28;20218;-69
2022/02/24 00:14:28;;;;;;;10.43;6.57;;;;;;;4.89;100.00;98611.22;5116573;28;20238;-69
2022/02/24 00:16:55;;;;;;;7.60;5.63;;;;;;;5.05;100.00;98603.63;5116655;28;20233;-69
2022/02/24 00:19:23;;;;;;;11.00;6.43;;;;;;;5.12;100.00;98600.69;5116678;28;20217;-69
2022/02/24 00:21:49;;;;;;;8.70;6.17;;;;;;;5.23;100.00;98603.75;5116468;28;20234;-68
2022/02/24 00:24:16;;;;;;;10.47;5.67;;;;;;;5.32;100.00;98598.13;5116370;28;20218;-69
2022/02/24 00:26:43;;;;;;;8.20;6.17;;;;;;;5.37;100.00;98592.72;5114785;28;20217;-68
2022/02/24 00:29:09;;;;;;;8.13;5.77;;;;;;;5.47;100.00;98589.63;5107562;28;20210;-69
2022/02/24 00:31:36;;;;;;;8.27;5.57;;;;;;;5.54;100.00;98588.47;5116471;28;20214;-69
2022/02/24 00:34:03;;;;;;;8.87;5.73;;;;;;;5.57;100.00;98585.69;5114373;28;20243;-68
2022/02/24 00:36:31;;;;;;;13.03;5.67;;;;;;;5.56;100.00;98580.53;5116149;28;20215;-69
2022/02/24 00:38:57;;;;;;;11.37;5.80;;;;;;;5.55;100.00;98590.16;5116339;28;20214;-68
2022/02/24 00:41:23;;;;;;;8.13;5.27;;;;;;;5.58;100.00;98583.94;5115915;28;20675;-68
2022/02/24 00:43:50;;;;;;;8.20;5.57;;;;;;;5.61;100.00;98589.91;5116223;28;20222;-68
2022/02/24 00:46:16;;;;;;;10.30;5.63;;;;;;;5.63;100.00;98582.81;5115913;28;20210;-68
2022/02/24 00:48:43;;;;;;;8.20;5.53;;;;;;;5.67;100.00;98579.16;5116123;28;20584;-68
2022/02/24 00:51:09;;;;;;;7.57;5.20;;;;;;;5.68;100.00;98580.84;5115945;28;20211;-69
2022/02/24 00:53:41;;;;;;;8.07;5.17;;;;;;;5.62;100.00;98586.34;5115849;28;20229;-68
2022/02/24 00:56:08;;;;;;;7.87;5.47;;;;;;;5.65;100.00;98591.50;5115771;28;20216;-70
2022/02/24 00:58:34;;;;;;;8.27;5.43;;;;;;;5.65;100.00;98580.13;5115815;28;20211;-69
2022/02/24 01:01:01;;;;;;;7.10;4.90;;;;;;;5.70;100.00;98581.66;5114247;28;20214;-68
2022/02/24 01:03:27;;;;;;;9.77;5.53;;;;;;;5.74;100.00;98585.84;5115763;28;20211;-69
2022/02/24 01:05:54;;;;;;;7.50;5.23;;;;;;;5.79;100.00;98588.25;5115617;28;20229;-68
2022/02/24 01:08:20;;;;;;;6.93;5.10;;;;;;;5.83;100.00;98592.50;5115350;28;20241;-68
2022/02/24 01:10:48;;;;;;;8.37;5.30;;;;;;;5.87;100.00;98597.53;5115680;28;20264;-69
2022/02/24 01:13:16;;;;;;;7.90;5.20;;;;;;;5.84;100.00;98602.06;5115296;28;20736;-69
2022/02/24 01:15:43;;;;;;;5.60;4.67;;;;;;;5.85;100.00;98593.28;5114940;28;20708;-69
2022/02/24 01:18:09;;;;;;;6.47;5.17;;;;;;;5.80;100.00;98600.50;5101665;28;20305;-69
2022/02/24 01:20:37;;;;;;;7.17;5.13;;;;;;;5.72;100.00;98595.56;5115355;28;20233;-70
2022/02/24 01:23:03;;;;;;;7.93;4.93;;;;;;;5.65;100.00;98595.88;5114468;28;20676;-69
2022/02/24 01:25:32;;;;;;;5.83;4.50;;;;;;;5.53;100.00;98592.00;5113682;28;20245;-69
2022/02/24 01:27:59;;;;;;;7.23;4.40;;;;;;;5.62;100.00;98591.59;5115155;28;20301;-70
2022/02/24 01:30:26;;;;;;;5.73;4.00;;;;;;;5.69;100.00;98582.56;5115260;28;20218;-71
2022/02/24 01:32:53;;;;;;;5.83;4.00;;;;;;;5.67;100.00;98587.03;5115311;28;20207;-70
2022/02/24 01:35:19;;;;;;;5.33;3.90;;;;;;;5.57;100.00;98567.34;5114769;28;20235;-68
2022/02/24 01:37:46;;;;;;;6.00;4.07;;;;;;;5.49;100.00;98569.44;5114744;28;20227;-69
2022/02/24 01:40:14;;;;;;;5.87;4.20;;;;;;;5.38;100.00;98560.34;5114895;28;20214;-69
2022/02/24 01:42:40;;;;;;;4.97;3.70;;;;;;;5.33;100.00;98555.28;5105212;28;20208;-69
2022/02/24 01:45:12;;;;;;;5.20;4.07;;;;;;;5.31;100.00;98556.28;5111240;28;20217;-69
2022/02/24 01:47:41;;;;;;;4.97;3.57;;;;;;;5.31;100.00;98554.50;5114493;28;20259;-69
2022/02/24 01:50:09;;;;;;;3.30;3.00;;;;;;;5.36;100.00;98554.28;5114998;28;20224;-69
2022/02/24 01:52:36;;;;;;;3.63;2.90;;;;;;;5.34;100.00;98536.03;5113179;28;20215;-69
2022/02/24 01:55:03;;;;;;;4.00;3.60;;;;;;;5.27;100.00;98544.19;5114561;28;20241;-69
2022/02/24 01:57:30;;;;;;;6.30;4.10;;;;;;;5.19;100.00;98534.03;5114654;28;20238;-69
2022/02/24 01:59:58;;;;;;;4.93;3.40;;;;;;;5.02;100.00;98520.75;5108285;28;20232;-70
2022/02/24 02:02:26;;;;;;;3.83;3.17;;;;;;;4.97;100.00;98521.88;5106447;28;20207;-70
2022/02/24 02:04:52;;;;;;;4.57;3.50;;;;;;;4.97;100.00;98514.03;5104434;28;20218;-70
2022/02/24 02:07:18;;;;;;;4.57;3.70;;;;;;;4.99;100.00;98520.91;5107308;28;20599;-70
2022/02/24 02:09:45;;;;;;;5.53;4.17;;;;;;;4.99;100.00;98510.44;5107579;28;20247;-68
2022/02/24 02:12:12;;;;;;;5.33;3.70;;;;;;;4.96;100.00;98515.78;5107353;28;20664;-69
2022/02/24 02:14:38;;;;;;;4.87;3.73;;;;;;;4.94;100.00;98507.16;5114139;28;20234;-69
2022/02/24 02:17:05;;;;;;;4.40;3.83;;;;;;;4.97;100.00;98500.94;5114282;28;20206;-69
2022/02/24 02:19:33;;;;;;;6.10;3.97;;;;;;;4.98;100.00;98502.63;5112574;28;20210;-69
2022/02/24 02:22:01;;;;;;;6.60;4.20;;;;;;;4.99;100.00;98494.72;5114503;28;20210;-70
2022/02/24 02:24:28;;;;;;;5.33;3.47;;;;;;;4.97;100.00;98496.56;5114194;28;20584;-70
2022/02/24 02:26:55;;;;;;;4.87;3.63;;;;;;;5.11;100.00;98488.09;5114046;28;20215;-70
2022/02/24 02:29:21;;;;;;;6.00;3.50;;;;;;;5.20;100.00;98485.13;5113804;28;20221;-70
2022/02/24 02:31:48;;;;;;;4.30;3.03;;;;;;;5.28;100.00;98483.88;5114080;28;20210;-70
2022/02/24 02:34:17;;;;;;;4.33;3.30;;;;;;;5.26;100.00;98482.22;5113200;28;20213;-70
2022/02/24 02:36:46;;;;;;;4.13;3.60;;;;;;;5.35;100.00;98480.06;5113681;28;20218;-70
2022/02/24 02:39:15;;;;;;;3.83;3.03;;;;;;;5.45;100.00;98463.00;5113847;28;20284;-70
2022/02/24 02:41:43;;;;;;;4.80;3.60;;;;;;;5.53;100.00;98466.16;5113561;28;20226;-70
2022/02/24 02:44:11;;;;;;;5.23;3.73;;;;;;;5.57;100.00;98472.13;5113063;28;20221;-69
2022/02/24 02:46:38;;;;;;;5.93;3.87;;;;;;;5.63;100.00;98467.44;5112967;28;20217;-69
2022/02/24 02:49:05;;;;;;;5.30;3.40;;;;;;;5.69;100.00;98472.41;5113721;28;20217;-69
2022/02/24 02:51:31;;;;;;;4.37;3.30;;;;;;;5.79;100.00;98462.38;5113765;28;20560;-69
2022/02/24 02:53:58;;;;;;;4.73;3.50;;;;;;;5.76;100.00;98460.75;5113876;28;20565;-69
2022/02/24 02:56:26;;;;;;;4.13;3.27;;;;;;;5.75;100.00;98455.56;5113709;28;20316;-69
2022/02/24 02:58:52;;;;;;;5.30;3.43;;;;;;;5.77;100.00;98457.22;5110493;28;20212;-69
2022/02/24 03:01:19;;;;;;;4.93;3.87;;;;;;;5.79;100.00;98450.13;5113624;28;20215;-69
2022/02/24 03:03:46;;;;;;;5.60;4.00;;;;;;;5.81;100.00;98450.09;5113389;28;20228;-69
2022/02/24 03:06:12;;;;;;;7.10;4.77;;;;;;;5.83;100.00;98446.47;5113564;28;20218;-69
2022/02/24 03:08:38;;;;;;;4.73;3.67;;;;;;;5.86;100.00;98446.31;5113322;28;20244;-68
2022/02/24 03:11:05;;;;;;;4.40;3.73;;;;;;;5.88;100.00;98441.88;5111643;28;20208;-69
2022/02/24 03:13:34;;;;;;;4.37;3.97;;;;;;;5.93;100.00;98434.63;5113628;28;20218;-69
2022/02/24 03:16:01;;;;;;;6.57;4.27;;;;;;;5.95;100.00;98430.19;5113586;28;20231;-69
2022/02/24 03:18:27;;;;;;;6.97;5.10;;;;;;;5.97;100.00;98436.19;5113200;28;20698;-69
2022/02/24 03:20:54;;;;;;;6.97;4.70;;;;;;;5.98;100.00;98426.56;5113333;28;20239;-69
2022/02/24 03:23:20;;;;;;;5.37;4.47;;;;;;;5.97;100.00;98427.47;5113494;28;20238;-68
2022/02/24 03:25:47;;;;;;;6.23;4.47;;;;;;;5.96;100.00;98417.91;5113334;28;20221;-69
2022/02/24 03:28:13;;;;;;;5.07;4.00;;;;;;;5.99;100.00;98423.84;5113085;28;20219;-69
2022/02/24 03:30:41;;;;;;;5.80;4.47;;;;;;;5.98;100.00;98416.91;5113045;28;20215;-69
2022/02/24 03:33:08;;;;;;;7.80;4.60;;;;;;;6.02;100.00;98420.25;5112976;28;20668;-69
2022/02/24 03:35:34;;;;;;;6.40;4.40;;;;;;;6.01;100.00;98411.53;5113291;28;20231;-69
2022/02/24 03:38:01;;;;;;;7.87;5.13;;;;;;;5.99;100.00;98408.09;5111533;28;20219;-69
2022/02/24 03:40:28;;;;;;;7.13;4.97;;;;;;;5.98;100.00;98401.16;5113259;28;20211;-70
2022/02/24 03:42:54;;;;;;;7.60;5.03;;;;;;;6.03;100.00;98400.94;5112695;28;20702;-70
2022/02/24 03:45:21;;;;;;;6.00;5.20;;;;;;;5.99;100.00;98408.09;5114570;28;20211;-69
2022/02/24 03:47:49;;;;;;;7.57;5.63;;;;;;;6.00;100.00;98409.84;5117448;28;20579;-68
2022/02/24 03:50:16;;;;;;;7.30;5.30;;;;;;;5.97;100.00;98398.59;5117376;28;20222;-69
2022/02/24 03:52:43;;;;;;;8.20;5.80;;;;;;;5.95;100.00;98401.31;5116973;28;20586;-68
2022/02/24 03:55:10;;;;;;;6.77;5.70;;;;;;;5.90;100.00;98400.69;5117058;28;20230;-68
2022/02/24 03:57:36;;;;;;;6.17;4.97;;;;;;;5.91;100.00;98389.25;5117149;28;20207;-68
2022/02/24 04:00:04;;;;;;;6.37;5.30;;;;;;;5.91;100.00;98384.03;5117072;28;20221;-69
2022/02/24 04:02:31;;;;;;;7.10;5.70;;;;;;;5.90;100.00;98382.31;5116937;28;20216;-69
2022/02/24 04:05:00;;;;;;;8.50;5.90;;;;;;;5.82;100.00;98378.34;5115350;28;20220;-69
2022/02/24 04:07:26;;;;;;;8.37;5.93;;;;;;;5.70;100.00;98371.00;5116649;28;20252;-69
2022/02/24 04:09:53;;;;;;;7.93;5.97;;;;;;;5.58;100.00;98375.06;5116442;28;20245;-68
2022/02/24 04:12:20;;;;;;;7.23;5.93;;;;;;;5.46;100.00;98380.88;5110609;28;20222;-69
2022/02/24 04:14:46;;;;;;;8.23;5.73;;;;;;;5.40;100.00;98370.66;5116888;28;20215;-69
2022/02/24 04:17:13;;;;;;;7.70;5.60;;;;;;;5.35;100.00;98377.88;5116321;28;20206;-69
2022/02/24 04:19:40;;;;;;;8.03;6.10;;;;;;;5.32;100.00;98362.25;5116760;28;20210;-69
2022/02/24 04:22:07;;;;;;;7.80;6.07;;;;;;;5.30;100.00;98366.72;5116386;28;20206;-69
2022/02/24 04:24:34;;;;;;;6.93;5.40;;;;;;;5.33;100.00;98358.75;5116486;28;20210;-70
2022/02/24 04:27:00;;;;;;;8.90;6.30;;;;;;;5.34;100.00;98360.44;5116788;28;20218;-69
2022/02/24 04:29:27;;;;;;;9.77;6.37;;;;;;;5.26;100.00;98352.03;5114480;28;20689;-69
2022/02/24 04:31:53;;;;;;;8.97;6.13;;;;;;;5.09;100.00;98345.88;5116626;28;20227;-69
2022/02/24 04:34:20;;;;;;;10.37;6.23;;;;;;;4.95;100.00;98346.47;5116457;28;20225;-69
2022/02/24 04:36:46;;;;;;;7.80;6.10;;;;;;;4.82;100.00;98342.69;5116390;28;20239;-69
2022/02/24 04:39:14;;;;;;;9.77;6.67;;;;;;;4.66;100.00;98344.28;5116356;28;20207;-69
2022/02/24 04:41:40;;;;;;;9.43;6.40;;;;;;;4.55;100.00;98346.47;5116354;28;20223;-69
2022/02/24 04:44:07;;;;;;;9.47;6.73;;;;;;;4.46;100.00;98341.63;5115933;28;20694;-69
2022/02/24 04:46:33;;;;;;;8.90;5.87;;;;;;;4.40;100.00;98347.09;5116193;28;20220;-69
2022/02/24 04:49:00;;;;;;;6.53;5.53;;;;;;;4.43;100.00;98336.53;5115857;28;20223;-69
2022/02/24 04:51:27;;;;;;;9.30;5.97;;;;;;;4.48;100.00;98339.81;5116045;28;20218;-69
2022/02/24 04:53:53;;;;;;;8.70;6.17;;;;;;;4.53;100.00;98335.19;5115721;28;20217;-68
2022/02/24 04:56:21;;;;;;;8.50;5.73;;;;;;;4.56;100.00;98331.59;5099775;28;20605;-69
2022/02/24 04:58:47;;;;;;;11.37;6.43;;;;;;;4.57;100.00;98333.31;5115597;28;20679;-69
2022/02/24 05:01:14;;;;;;;9.97;6.30;;;;;;;4.51;100.00;98313.50;5115661;28;20660;-69
2022/02/24 05:03:40;;;;;;;8.33;5.93;;;;;;;4.44;100.00;98309.44;5115511;28;20679;-69
2022/02/24 05:06:07;;;;;;;8.20;6.07;;;;;;;4.35;100.00;98296.72;5115508;28;20214;-69
2022/02/24 05:08:33;;;;;;;7.87;6.03;;;;;;;4.23;100.00;98297.22;5115560;28;20214;-68
2022/02/24 05:11:00;;;;;;;7.57;5.70;;;;;;;4.14;100.00;98289.78;5115428;28;20697;-68
2022/02/24 05:13:28;;;;;;;8.20;6.07;;;;;;;4.12;100.00;98277.69;5115690;28;20214;-68
2022/02/24 05:15:55;;;;;;;7.40;6.13;;;;;;;4.07;100.00;98280.50;5115498;28;20235;-68
2022/02/24 05:18:21;;;;;;;8.67;6.10;;;;;;;4.00;100.00;98283.41;5115253;28;20305;-69
2022/02/24 05:20:48;;;;;;;7.47;5.53;;;;;;;3.91;100.00;98274.16;5115296;28;20213;-68
2022/02/24 05:23:14;;;;;;;7.17;5.43;;;;;;;3.86;100.00;98276.13;5114029;28;20220;-69
2022/02/24 05:25:40;;;;;;;9.27;6.10;;;;;;;3.85;100.00;98274.41;5115325;28;20216;-68
2022/02/24 05:28:08;;;;;;;6.93;5.17;;;;;;;3.83;100.00;98272.78;5108863;28;20221;-69
2022/02/24 05:30:36;;;;;;;6.73;5.60;;;;;;;3.84;100.00;98271.88;5115371;28;20209;-69
2022/02/24 05:33:03;;;;;;;8.77;5.53;;;;;;;3.87;100.00;98262.16;5115186;28;20206;-68
2022/02/24 05:35:29;;;;;;;8.10;5.73;;;;;;;3.93;100.00;98274.13;5114900;28;20264;-68
2022/02/24 05:37:56;;;;;;;8.97;5.67;;;;;;;3.95;100.00;98270.53;5114950;28;20209;-68
2022/02/24 05:40:23;;;;;;;10.00;6.83;;;;;;;3.97;100.00;98273.09;5114907;28;20217;-69
2022/02/24 05:42:50;;;;;;;6.63;5.33;;;;;;;3.99;100.00;98272.13;5115064;28;20256;-68
2022/02/24 05:45:16;;;;;;;7.63;5.20;;;;;;;4.02;100.00;98269.38;5115087;28;20217;-68
2022/02/24 05:47:44;;;;;;;7.90;5.20;;;;;;;4.02;100.00;98266.75;5113980;28;20221;-68
2022/02/24 05:50:10;;;;;;;7.63;5.20;;;;;;;4.04;100.00;98264.91;5114258;28;20218;-68
2022/02/24 05:52:38;;;;;;;5.90;5.30;;;;;;;4.11;100.00;98258.53;5114967;28;20214;-68
2022/02/24 05:55:05;;;;;;;7.03;4.97;;;;;;;4.14;100.00;98261.00;5114794;28;20217;-68
2022/02/24 05:57:31;;;;;;;5.83;4.83;;;;;;;4.11;100.00;98255.91;5114718;28;20248;-69
2022/02/24 05:59:58;;;;;;;7.37;5.17;;;;;;;4.02;100.00;98258.03;5114536;28;20683;-69
2022/02/24 06:02:25;;;;;;;6.90;5.53;;;;;;;4.08;100.00;98250.81;5114586;28;20212;-69
2022/02/24 06:04:53;;;;;;;6.37;5.57;;;;;;;4.11;100.00;98255.91;5114553;28;20205;-68
2022/02/24 06:07:20;;;;;;;7.87;5.13;;;;;;;4.11;100.00;98250.69;5114615;28;20327;-68
2022/02/24 06:09:46;;;;;;;7.60;4.80;;;;;;;4.13;100.00;98246.25;5114498;28;20245;-69
2022/02/24 06:12:12;;;;;;;6.83;4.93;;;;;;;4.14;100.00;98247.94;5114251;28;20588;-68
2022/02/24 06:14:39;;;;;;;5.97;4.80;;;;;;;4.17;100.00;98266.09;5112584;28;20226;-70
2022/02/24 06:17:05;;;;;;;6.90;5.57;;;;;;;4.14;100.00;98260.16;5114089;28;20236;-68
2022/02/24 06:19:32;;;;;;;8.80;5.30;;;;;;;4.12;100.00;98257.63;5114259;28;20206;-69
2022/02/24 06:22:00;;;;;;;7.70;5.20;;;;;;;4.08;100.00;98261.25;5114380;28;20218;-68
2022/02/24 06:24:26;;;;;;;7.23;5.70;;;;;;;4.12;100.00;98262.84;5114422;28;20220;-68
2022/02/24 06:26:53;;;;;;;9.87;6.00;;;;;;;4.14;100.00;98274.09;5114034;28;20311;-69
2022/02/24 06:29:19;;;;;;;7.50;5.40;;;;;;;4.15;100.00;98265.31;5114206;28;20317;-69
2022/02/24 06:31:46;;;;;;;9.33;6.23;;;;;;;4.31;100.00;98268.16;5114278;28;20220;-68
2022/02/24 06:34:12;;;;;;;9.03;5.50;;;;;;;4.45;100.00;98261.41;5114161;28;20218;-68
2022/02/24 06:36:39;;;;;;;7.53;5.83;;;;;;;4.58;100.00;98257.34;5113810;28;20237;-68
2022/02/24 06:39:07;;;;;;;7.33;5.67;;;;;;;4.69;100.00;98255.13;5110966;28;20218;-68
2022/02/24 06:41:33;;;;;;;7.10;5.00;;;;;;;4.72;100.00;98249.75;5111273;28;20337;-70
2022/02/24 06:44:00;;;;;;;9.37;5.80;;;;;;;4.76;100.00;98248.69;5105153;28;20218;-69
2022/02/24 06:46:26;;;;;;;8.70;6.20;;;;;;;4.77;100.00;98249.56;5113855;28;20206;-69
2022/02/24 06:48:53;;;;;;;6.20;5.43;;;;;;;4.78;100.00;98249.50;5113643;28;20672;-69
2022/02/24 06:51:19;;;;;;;8.20;5.83;;;;;;;4.79;100.00;98245.94;5113304;28;20381;-68
2022/02/24 06:53:46;;;;;;;7.50;5.90;;;;;;;4.76;100.00;98246.06;5113627;28;20601;-69
2022/02/24 06:56:13;;;;;;;7.63;5.60;;;;;;;4.74;100.00;98240.06;5113425;28;20237;-68
2022/02/24 06:58:40;;;;;;;6.30;5.20;;;;;;;4.80;100.00;98247.66;5113759;28;20206;-68
2022/02/24 07:01:06;;;;;;;7.83;5.77;;;;;;;4.78;100.00;98243.38;5112076;28;20206;-69
2022/02/24 07:03:33;;;;;;;8.27;6.40;;;;;;;4.85;100.00;98240.44;5111306;28;20220;-70
2022/02/24 07:06:00;;;;;;;8.20;5.60;;;;;;;4.88;100.00;98235.06;5111344;28;20694;-69
2022/02/24 07:08:26;;;;;;;6.27;5.43;;;;;;;4.91;100.00;98229.69;5111048;28;20218;-70
2022/02/24 07:10:53;;;;;;;8.07;5.40;;;;;;;4.91;100.00;98227.06;5109665;28;20234;-69
2022/02/24 07:13:21;;;;;;;7.87;6.30;;;;;;;4.87;100.00;98222.88;5107646;28;20216;-69
2022/02/24 07:15:47;;;;;;;7.17;6.10;;;;;;;4.82;100.00;98235.31;5112539;28;20232;-68
2022/02/24 07:18:14;;;;;;;7.70;5.57;;;;;;;4.81;100.00;98228.38;5111553;28;20215;-69
2022/02/24 07:20:40;;;;;;;6.97;5.83;;;;;;;4.81;100.00;98225.78;5111726;28;20214;-69
2022/02/24 07:23:06;;;;;;;8.37;5.70;;;;;;;4.82;100.00;98226.63;5112809;28;20206;-69
2022/02/24 07:25:33;;;;;;;9.23;6.47;;;;;;;4.87;100.00;98216.78;5113167;28;20222;-69
2022/02/24 07:27:59;;;;;;;9.17;6.50;;;;;;;4.91;100.00;98213.97;5113213;28;20214;-69
2022/02/24 07:30:27;;;;;;;8.97;6.77;;;;;;;4.94;100.00;98219.06;5113489;28;20580;-69
2022/02/24 07:32:54;;;;;;;6.70;6.00;;;;;;;5.02;100.00;98216.94;5112260;28;20237;-69
2022/02/24 07:35:20;;;;;;;7.60;6.23;;;;;;;5.07;100.00;98227.22;5112710;28;20217;-69
2022/02/24 07:37:47;;;;;;;8.17;6.07;;;;;;;5.13;100.00;98214.66;5113288;28;20604;-69
2022/02/24 07:40:13;;;;;;;8.23;6.20;;;;;;;5.23;100.00;98210.72;5113266;28;20214;-69
2022/02/24 07:42:40;;;;;;;8.87;6.70;;;;;;;5.31;100.00;98216.44;5103352;28;20209;-69
2022/02/24 07:45:07;;;;;;;8.13;6.20;;;;;;;5.42;100.00;98211.53;5113030;28;20210;-69
2022/02/24 07:47:35;;;;;;;8.10;6.60;;;;;;;5.52;100.00;98207.56;5113004;28;20217;-69
2022/02/24 07:50:02;;;;;;;7.67;6.03;;;;;;;5.60;100.00;98208.03;5113015;28;20210;-69
2022/02/24 07:52:28;;;;;;;8.13;6.20;;;;;;;5.67;100.00;98206.81;5112918;28;20680;-68
2022/02/24 07:54:55;;;;;;;9.23;6.30;;;;;;;5.74;100.00;98199.53;5112904;28;20217;-69
2022/02/24 07:57:21;;;;;;;9.07;6.33;;;;;;;5.81;100.00;98199.16;5112830;28;20269;-69
2022/02/24 07:59:48;;;;;;;7.17;6.00;;;;;;;5.84;100.00;98190.28;5111465;28;20591;-69
2022/02/24 08:02:14;;;;;;;9.30;6.10;;;;;;;5.91;100.00;98179.41;5112835;28;20701;-69
2022/02/24 08:04:42;;;;;;;9.67;6.33;;;;;;;5.95;100.00;98185.38;5113115;28;20213;-69
2022/02/24 08:07:09;;;;;;;7.93;5.83;;;;;;;6.04;100.00;98180.50;5113067;28;20577;-69
2022/02/24 08:09:35;;;;;;;7.27;5.37;;;;;;;6.13;100.00;98174.81;5113073;28;20243;-69
2022/02/24 08:14:46;;;;;;;8.17;6.20;;;;;;;6.32;100.00;98165.06;5112937;28;20222;-69
2022/02/24 08:17:12;;;;;;;7.43;5.80;;;;;;;6.40;100.00;98168.13;5112574;28;20241;-69
2022/02/24 08:19:40;;;;;;;7.97;6.33;;;;;;;6.52;100.00;98169.25;5112985;28;20210;-69
2022/02/24 08:22:08;;;;;;;8.17;6.13;;;;;;;6.56;100.00;98169.03;5112717;28;20297;-69
2022/02/24 08:24:35;;;;;;;7.17;5.70;;;;;;;6.63;100.00;98170.41;5112896;28;20251;-69
2022/02/24 08:27:01;;;;;;;8.47;6.00;;;;;;;6.74;100.00;98165.44;5110922;28;20305;-69
2022/02/24 08:29:28;;;;;;;7.10;5.73;;;;;;;6.84;100.00;98164.00;5113053;28;20219;-69
2022/02/24 08:31:54;;;;;;;9.47;6.13;;;;;;;7.01;100.00;98168.34;5113652;28;20241;-69
2022/02/24 08:34:21;;;;;;;7.93;5.63;;;;;;;7.04;100.00;98158.53;5116603;28;20217;-69
2022/02/24 08:36:48;;;;;;;7.43;5.53;;;;;;;7.22;100.00;98148.75;5116103;28;20250;-69
2022/02/24 08:39:16;;;;;;;16.17;6.10;;;;;;;7.49;100.00;98148.94;5116520;28;20677;-69
2022/02/24 08:41:44;;;;;;;8.63;5.90;;;;;;;7.70;100.00;98145.06;5116131;28;20214;-69
2022/02/24 08:44:11;;;;;;;8.53;5.83;;;;;;;7.81;100.00;98139.16;5116420;28;20216;-69
2022/02/24 08:46:37;;;;;;;7.67;5.70;;;;;;;7.89;100.00;98147.50;5116397;28;20220;-70
2022/02/24 08:49:04;;;;;;;7.20;4.93;;;;;;;7.89;100.00;98148.31;5116281;28;20240;-69
2022/02/24 08:51:31;;;;;;;8.13;5.70;;;;;;;7.84;99.05;98146.91;5106573;28;20641;-69
2022/02/24 08:53:57;;;;;;;6.70;5.33;;;;;;;7.81;98.14;98139.16;5114339;28;20220;-69
2022/02/24 08:56:25;;;;;;;7.20;5.10;;;;;;;7.84;97.17;98139.00;5115440;28;20218;-69
2022/02/24 08:58:52;;;;;;;8.97;5.53;;;;;;;7.84;96.80;98134.56;5115599;28;20216;-69
2022/02/24 09:01:18;;;;;;;7.70;5.40;;;;;;;7.98;97.24;98125.88;5115771;28;20209;-69
2022/02/24 09:03:45;;;;;;;5.97;5.10;;;;;;;8.10;96.53;98126.03;5116072;28;20629;-69
2022/02/24 09:06:12;;;;;;;6.03;5.17;;;;;;;8.25;96.43;98127.75;5115964;28;20212;-69
2022/02/24 09:08:39;;;;;;;6.60;5.30;;;;;;;8.41;96.88;98119.78;5115730;28;20222;-69
2022/02/24 09:11:05;;;;;;;7.33;5.27;;;;;;;8.60;97.12;98120.34;5115584;28;20217;-69
2022/02/24 09:13:33;;;;;;;6.53;5.57;;;;;;;8.80;98.80;98104.13;5114795;28;20206;-69
2022/02/24 09:15:59;;;;;;;6.93;5.00;;;;;;;8.95;96.14;98100.56;5115531;28;20690;-69
2022/02/24 09:18:26;;;;;;;6.50;4.80;;;;;;;9.11;94.38;98104.75;5114337;28;20622;-69
2022/02/24 09:20:52;;;;;;;7.53;4.80;;;;;;;9.21;93.28;98089.19;5115750;28;20214;-69
2022/02/24 09:23:19;;;;;;;6.73;4.30;;;;;;;9.30;92.54;98085.97;5115610;28;20216;-69
2022/02/24 09:25:46;;;;;;;7.53;4.53;;;;;;;9.47;90.38;98090.97;5115415;28;20221;-69
2022/02/24 09:28:13;;;;;;;6.10;4.43;;;;;;;9.56;90.00;98082.47;5115568;28;20220;-69
2022/02/24 09:30:41;;;;;;;5.63;4.20;;;;;;;9.64;88.23;98074.88;5115681;28;20225;-69
2022/02/24 09:33:07;;;;;;;4.80;4.30;;;;;;;9.74;86.93;98073.34;5115526;28;20222;-69
2022/02/24 09:35:34;;;;;;;6.10;4.40;;;;;;;9.78;86.02;98066.91;5115429;28;20288;-69
2022/02/24 09:38:00;;;;;;;6.70;4.77;;;;;;;9.78;85.97;98072.19;5115203;28;20264;-69
2022/02/24 09:40:30;;;;;;;6.77;4.73;;;;;;;9.74;86.58;98075.97;5115233;28;20210;-69
2022/02/24 09:42:57;;;;;;;6.87;4.73;;;;;;;9.70;85.31;98069.19;5115009;28;20213;-69
2022/02/24 09:45:24;;;;;;;5.53;4.20;;;;;;;9.68;86.63;98065.84;5113284;28;20678;-68
2022/02/24 09:47:52;;;;;;;5.50;4.63;;;;;;;9.69;86.86;98060.47;5114710;28;20226;-67
2022/02/24 09:50:19;;;;;;;5.10;3.97;;;;;;;9.80;85.16;98059.72;5115084;28;20252;-68
2022/02/24 09:52:46;;;;;;;6.57;4.20;;;;;;;9.97;85.33;98064.72;5115058;28;20217;-68
2022/02/24 09:55:13;;;;;;;6.60;4.50;;;;;;;10.13;84.88;98057.47;5114614;28;20219;-68
2022/02/24 09:57:39;;;;;;;7.33;4.90;;;;;;;10.30;84.75;98051.88;5114709;28;20236;-68
2022/02/24 10:00:08;;;;;;;8.17;4.33;;;;;;;10.45;83.32;98042.91;5114761;28;20691;-67
2022/02/24 10:02:35;;;;;;;7.03;4.57;;;;;;;10.57;82.99;98047.28;5114742;28;20216;-68
2022/02/24 10:05:09;;;;;;;6.37;4.17;;;;;;;10.75;82.53;98035.41;5114914;28;20213;-68
2022/02/24 10:07:38;;;;;;;6.50;4.43;;;;;;;10.93;83.61;98031.44;5114485;28;20211;-67
2022/02/24 10:10:31;;;;;;;6.80;4.10;;;;;;;11.04;81.37;98035.03;5114809;28;20241;-68
2022/02/24 10:13:02;;;;;;;5.30;4.40;;;;;;;11.17;81.63;98025.25;5113816;28;20218;-68
2022/02/24 10:15:30;;;;;;;5.63;3.97;;;;;;;11.28;81.91;98021.81;5114315;28;20218;-68
2022/02/24 10:18:09;;;;;;;5.30;4.00;;;;;;;11.24;81.33;98017.69;5114395;28;20590;-68
2022/02/24 10:20:40;;;;;;;5.53;3.90;;;;;;;11.23;79.98;98010.72;5114289;28;20214;-67
2022/02/24 10:23:07;;;;;;;6.63;3.83;;;;;;;11.22;81.53;98009.03;5114407;28;20210;-67
2022/02/24 10:25:41;;;;;;;6.47;3.67;;;;;;;11.22;81.63;98001.09;5114532;28;20211;-67
2022/02/24 10:28:27;;;;;;;3.43;1.70;;;;;;;11.24;75.62;98002.66;5114420;28;20214;-69
2022/02/24 10:30:54;;;;;;;3.08;1.90;;;;;;;11.41;73.99;97988.19;5112941;28;20438;-69
2022/02/24 10:33:25;;;;;;;2.30;1.33;;;;;;;11.49;73.20;97986.66;5114363;28;20210;-69
2022/02/24 10:35:53;;;;;;;2.23;1.43;;;;;;;11.50;71.07;97992.81;5114354;28;20214;-69
2022/02/24 10:38:20;;;;;;;2.90;1.47;;;;;;;11.47;71.78;97987.72;5112446;28;20243;-69
2022/02/24 10:40:48;;;;;;;3.03;1.50;;;;;;;11.50;70.92;97987.50;5114139;28;20300;-69
2022/02/24 10:43:18;;;;;;;3.33;1.77;;;;;;;11.58;70.94;97985.13;5113648;28;20217;-70
2022/02/24 10:45:47;;;;;;;1.97;1.30;;;;;;;11.73;70.21;97984.84;5113937;28;20220;-70
2022/02/24 10:48:14;;;;;;;2.53;1.50;;;;;;;11.74;70.55;97981.22;5113992;28;20697;-69
2022/02/24 10:50:55;;;;;;;2.87;1.43;;;;;;;11.85;69.00;97977.75;5111552;28;20221;-68
2022/02/24 10:53:24;;;;;;;2.03;1.40;;;;;;;11.89;67.76;97979.22;5114183;28;20220;-69
2022/02/24 10:55:56;;;;;;;2.73;1.43;;;;;;;12.00;68.57;97982.75;5107428;28;20217;-69
2022/02/24 10:58:23;;;;;;;3.70;1.40;;;;;;;12.08;67.46;97974.19;5112479;28;20240;-69
2022/02/24 11:01:03;;;;;;;4.20;1.67;;;;;;;12.28;67.70;97971.66;5113743;28;20214;-69
2022/02/24 11:03:30;;;;;;;2.87;1.37;;;;;;;12.44;67.31;97966.00;5103847;28;20205;-69
2022/02/24 11:05:59;;;;;;;3.10;1.40;;;;;;;12.75;64.29;97959.94;5113531;28;20241;-69
2022/02/24 11:08:27;;;;;;;2.10;1.30;;;;;;;12.97;65.31;97949.31;5109938;28;20207;-69
2022/02/24 11:10:55;;;;;;;1.63;1.20;;;;;;;13.24;63.26;97949.69;5111755;28;20237;-70
2022/02/24 11:13:22;;;;;;;1.93;1.20;;;;;;;13.50;61.73;97937.75;5112056;28;20221;-68
2022/02/24 11:15:49;;;;;;;2.20;1.43;;;;;;;13.72;60.64;97924.34;5111940;28;20214;-70
2022/02/24 11:18:17;;;;;;;1.80;1.37;;;;;;;13.81;59.07;97927.06;5111717;28;20244;-68
2022/02/24 11:20:44;;;;;;;3.63;1.60;;;;;;;13.90;58.33;97926.28;5112118;28;20207;-72
2022/02/24 11:23:12;;;;;;;3.13;1.30;;;;;;;14.00;58.41;97913.03;5111976;28;20209;-68
2022/02/24 11:25:48;;;;;;;2.67;1.43;;;;;;;14.08;59.99;97918.53;5111780;28;20218;-68
2022/02/24 11:28:16;;;;;;;3.53;1.90;;;;;;;14.20;59.46;97909.53;5112004;28;20626;-69
2022/02/24 11:30:48;;;;;;;2.07;1.27;;;;;;;14.23;58.81;97911.94;5110256;28;20222;-69
2022/02/24 11:33:16;;;;;;;3.37;1.77;;;;;;;14.36;57.02;97905.38;5111855;28;20218;-69
2022/02/24 11:35:42;;;;;;;2.47;1.40;;;;;;;14.36;56.93;97905.38;5112064;28;20215;-68
2022/02/24 11:38:14;;;;;;;1.97;1.30;;;;;;;14.26;58.09;97899.22;5112066;28;20242;-69